Time;durP1;ratioP1;P1;durP2;ratioP2;P2;SDS_P1;SDS_P2;PMS_P1;PMS_P2;Temp;Humidity;BMP_temperature;BMP_pressure;BME280_temperature;BME280_humidity;BME280_pressure;Samples;Min_cycle;Max_cycle;Signal;HPM_P1;HPM_P2
2023/09/04 00:04:55;;;;;;;5.03;4.37;;;;;;;18.37;53.27;100746.59;10258146;28;20249;-34
2023/09/04 00:09:57;;;;;;;5.07;4.30;;;;;;;17.55;54.59;100811.78;10259187;28;20259;-34
2023/09/04 00:14:58;;;;;;;6.77;5.07;;;;;;;18.89;51.73;100759.28;10263606;28;20233;-34
2023/09/04 00:20:00;;;;;;;6.50;4.60;;;;;;;19.30;51.85;100711.91;10258991;28;20253;-34
2023/09/04 00:25:02;;;;;;;6.53;4.57;;;;;;;17.95;53.63;100820.97;10262977;28;20275;-34
2023/09/04 00:30:05;;;;;;;4.93;4.43;;;;;;;17.90;53.92;100800.78;10262138;28;20235;-34
2023/09/04 00:35:08;;;;;;;7.47;4.80;;;;;;;18.43;53.51;100721.31;10257914;28;20263;-35
2023/09/04 00:40:09;;;;;;;6.00;4.60;;;;;;;18.55;53.30;100717.94;10261844;28;20797;-35
2023/09/04 00:45:12;;;;;;;6.17;4.37;;;;;;;17.73;53.96;100819.31;10261120;28;20237;-35
2023/09/04 00:50:22;;;;;;;6.33;4.80;;;;;;;18.55;52.90;100745.06;10260588;28;20277;-34
2023/09/04 00:55:25;;;;;;;5.93;4.25;;;;;;;19.29;51.59;100688.53;10254998;28;20238;-34
2023/09/04 01:00:27;;;;;;;4.80;4.23;;;;;;;18.17;53.52;100746.59;10258056;28;20377;-34
2023/09/04 01:05:31;;;;;;;5.97;4.97;;;;;;;17.49;54.21;100811.75;10260506;28;20234;-34
2023/09/04 01:10:47;;;;;;;5.07;4.40;;;;;;;18.23;53.35;100761.16;10264229;28;20239;-34
2023/09/04 01:15:51;;;;;;;6.67;4.80;;;;;;;18.24;53.60;100714.91;10258271;28;20240;-34
2023/09/04 01:21:05;;;;;;;6.77;5.23;;;;;;;18.89;52.21;100697.75;10260739;28;21313;-34
2023/09/04 01:26:07;;;;;;;7.50;5.50;;;;;;;17.16;55.28;100772.78;10261517;28;20718;-34
2023/09/04 01:31:40;;;;;;;6.03;4.90;;;;;;;16.98;55.36;100804.97;10258106;28;20756;-35
2023/09/04 01:36:44;;;;;;;8.03;4.90;;;;;;;17.83;53.39;100766.63;10261242;28;20304;-34
2023/09/04 01:41:46;;;;;;;6.87;4.93;;;;;;;17.65;53.83;100776.22;10260592;28;20272;-34
2023/09/04 01:46:48;;;;;;;5.83;5.00;;;;;;;17.27;54.71;100787.56;10254718;28;20336;-35
2023/09/04 01:51:51;;;;;;;6.70;5.03;;;;;;;18.80;52.65;100640.25;10266331;28;20235;-34
2023/09/04 01:56:53;;;;;;;5.13;4.50;;;;;;;18.05;53.78;100691.41;10257139;28;20617;-34
2023/09/04 02:01:55;;;;;;;6.43;4.50;;;;;;;18.17;53.22;100705.97;10254166;28;20234;-34
2023/09/04 02:06:57;;;;;;;5.33;4.70;;;;;;;17.64;54.09;100733.94;10262562;28;20239;-34
2023/09/04 02:12:00;;;;;;;5.50;4.73;;;;;;;17.58;54.33;100718.53;10262481;28;20240;-35
2023/09/04 02:17:03;;;;;;;6.03;4.60;;;;;;;17.63;53.28;100759.38;10251983;28;20249;-36
2023/09/04 02:22:05;;;;;;;5.60;4.67;;;;;;;17.77;53.68;100702.53;10256634;28;20238;-34
2023/09/04 02:27:06;;;;;;;5.00;4.50;;;;;;;18.97;51.54;100656.00;10253857;28;20236;-35
2023/09/04 02:32:08;;;;;;;5.10;4.53;;;;;;;17.43;53.99;100753.91;10255190;28;20230;-34
2023/09/04 02:37:10;;;;;;;6.63;4.90;;;;;;;17.96;53.26;100693.50;10252407;28;20237;-34
2023/09/04 02:42:12;;;;;;;5.07;4.43;;;;;;;16.92;54.72;100790.38;10255823;28;20326;-34
2023/09/04 02:47:14;;;;;;;5.63;4.43;;;;;;;18.35;52.23;100648.41;10247249;28;20230;-34
2023/09/04 02:52:16;;;;;;;6.23;5.03;;;;;;;17.66;53.76;100703.97;10256675;28;20261;-34
2023/09/04 02:57:18;;;;;;;5.77;4.83;;;;;;;17.97;52.98;100702.50;10254298;28;20234;-35
2023/09/04 03:02:21;;;;;;;5.33;4.83;;;;;;;18.42;52.04;100676.31;10252932;28;20264;-34
2023/09/04 03:07:26;;;;;;;8.53;4.97;;;;;;;17.63;52.83;100750.38;10258570;28;20238;-34
2023/09/04 03:12:32;;;;;;;5.67;4.80;;;;;;;16.65;55.21;100762.41;10250079;28;20211;-34
2023/09/04 03:17:34;;;;;;;5.30;4.80;;;;;;;16.72;54.34;100800.25;10259105;28;20239;-34
2023/09/04 03:22:36;;;;;;;5.10;4.53;;;;;;;17.81;52.72;100695.63;10256413;28;21202;-34
2023/09/04 03:27:38;;;;;;;5.57;5.00;;;;;;;18.50;51.74;100639.19;10259856;28;20242;-34
2023/09/04 03:32:40;;;;;;;6.57;4.90;;;;;;;17.82;52.81;100675.66;10257463;28;22315;-34
2023/09/04 03:37:42;;;;;;;7.93;5.80;;;;;;;18.21;52.62;100630.53;10255732;28;20234;-34
2023/09/04 03:42:44;;;;;;;5.50;4.43;;;;;;;16.52;55.53;100736.16;10257209;28;21338;-34
2023/09/04 03:47:47;;;;;;;5.53;4.67;;;;;;;17.45;53.11;100711.25;10259115;28;20234;-34
2023/09/04 03:52:49;;;;;;;5.17;4.50;;;;;;;17.80;52.06;100726.44;10261094;28;20234;-34
2023/09/04 03:57:51;;;;;;;6.90;4.70;;;;;;;16.87;54.56;100744.19;10257765;28;20309;-34
2023/09/04 04:02:53;;;;;;;6.17;4.70;;;;;;;17.31;53.59;100701.47;10263645;28;20317;-34
2023/09/04 04:07:55;;;;;;;6.13;4.43;;;;;;;16.76;54.53;100740.19;10262179;28;20319;-34
2023/09/04 04:12:57;;;;;;;5.70;4.77;;;;;;;17.23;53.34;100724.13;10261827;28;20223;-34
2023/09/04 04:17:58;;;;;;;5.53;4.60;;;;;;;17.18;53.81;100719.31;10257001;28;20620;-34
2023/09/04 04:23:00;;;;;;;5.00;4.50;;;;;;;15.81;56.20;100790.31;10265592;28;20207;-34
2023/09/04 04:28:05;;;;;;;6.20;4.40;;;;;;;17.97;51.27;100729.56;10269992;28;20317;-34
2023/09/04 04:33:07;;;;;;;6.33;4.10;;;;;;;16.56;54.47;100785.22;10263131;28;20221;-34
2023/09/04 04:38:09;;;;;;;4.80;4.30;;;;;;;16.25;54.05;100832.38;10256895;28;20238;-34
2023/09/04 04:43:11;;;;;;;6.60;4.50;;;;;;;17.73;51.91;100683.13;10258444;28;20239;-34
2023/09/04 04:48:13;;;;;;;5.00;4.50;;;;;;;16.21;54.37;100823.84;10266960;28;20235;-34
2023/09/04 04:53:14;;;;;;;4.97;4.43;;;;;;;17.74;52.30;100627.97;10266298;28;20246;-34
2023/09/04 04:58:17;;;;;;;6.77;4.73;;;;;;;17.65;52.51;100692.31;10272976;28;20610;-34
2023/09/04 05:03:18;;;;;;;5.70;4.50;;;;;;;17.49;52.68;100673.78;10271218;28;20303;-34
2023/09/04 05:08:20;;;;;;;4.90;4.40;;;;;;;17.57;51.85;100722.28;10264621;28;20601;-34
2023/09/04 05:13:22;;;;;;;5.70;4.00;;;;;;;17.05;53.33;100732.81;10266755;28;20857;-34
2023/09/04 05:18:24;;;;;;;6.47;4.40;;;;;;;17.01;53.28;100736.16;10268535;28;20337;-35
2023/09/04 05:23:26;;;;;;;5.47;4.70;;;;;;;16.34;55.07;100727.75;10265574;28;20607;-34
2023/09/04 05:28:28;;;;;;;4.80;4.33;;;;;;;17.57;52.71;100651.09;10267382;28;20238;-34
2023/09/04 05:33:30;;;;;;;6.23;4.57;;;;;;;17.53;53.28;100650.69;10259877;28;20228;-35
2023/09/04 05:38:32;;;;;;;5.87;4.40;;;;;;;17.21;54.05;100665.84;10271794;28;20230;-36
2023/09/04 05:43:33;;;;;;;4.30;3.90;;;;;;;16.98;53.49;100754.44;10269999;28;20238;-36
2023/09/04 05:48:35;;;;;;;6.30;4.73;;;;;;;16.27;54.01;100843.84;10268749;28;21045;-35
2023/09/04 05:53:37;;;;;;;5.10;4.10;;;;;;;18.46;51.88;100604.38;10268273;28;20218;-35
2023/09/04 05:58:47;;;;;;;4.97;4.27;;;;;;;17.80;52.61;100696.66;10266712;28;21083;-36
2023/09/04 06:03:49;;;;;;;5.93;4.17;;;;;;;17.62;52.62;100743.31;10272286;28;20650;-35
2023/09/04 06:08:51;;;;;;;6.13;4.57;;;;;;;18.03;50.93;100793.69;10271311;28;20238;-35
2023/09/04 06:13:52;;;;;;;4.37;3.93;;;;;;;17.80;52.48;100750.81;10265897;28;20239;-35
2023/09/04 06:18:54;;;;;;;4.33;3.93;;;;;;;17.49;52.74;100774.69;10265407;28;20246;-37
2023/09/04 06:23:56;;;;;;;5.57;3.90;;;;;;;18.44;51.33;100733.84;10269336;28;20242;-35
2023/09/04 06:28:57;;;;;;;5.70;4.13;;;;;;;18.47;51.96;100667.53;10269788;28;20331;-35
2023/09/04 06:34:03;;;;;;;5.73;4.23;;;;;;;18.56;50.79;100719.63;10264666;28;20353;-37
2023/09/04 06:39:05;;;;;;;5.17;3.50;;;;;;;19.32;50.05;100661.78;10269497;28;20734;-35
2023/09/04 06:44:06;;;;;;;3.97;3.53;;;;;;;19.03;50.75;100655.16;10269857;28;20266;-36
2023/09/04 06:49:08;;;;;;;4.80;3.60;;;;;;;18.26;51.05;100801.38;10260561;28;20237;-35
2023/09/04 06:54:10;;;;;;;5.07;3.73;;;;;;;18.39;51.89;100738.22;10264895;28;20726;-35
2023/09/04 06:59:12;;;;;;;5.17;3.63;;;;;;;20.69;48.00;100600.88;10264243;28;20231;-35
2023/09/04 07:04:13;;;;;;;4.23;3.13;;;;;;;19.10;50.49;100685.75;10263996;28;20232;-35
2023/09/04 07:09:15;;;;;;;4.93;4.10;;;;;;;17.74;52.58;100787.66;10263276;28;20241;-35
2023/09/04 07:14:17;;;;;;;4.17;3.40;;;;;;;19.41;50.71;100654.19;10263181;28;20253;-35
2023/09/04 07:19:18;;;;;;;5.17;3.70;;;;;;;18.81;50.25;100814.59;10266901;28;20238;-35
2023/09/04 07:24:20;;;;;;;7.13;3.70;;;;;;;20.18;49.00;100710.94;10258378;28;20328;-36
2023/09/04 07:29:22;;;;;;;5.03;3.63;;;;;;;20.41;48.62;100644.16;10253548;28;20235;-35
2023/09/04 07:34:24;;;;;;;4.22;3.33;;;;;;;20.37;48.24;100690.00;10258959;28;20235;-36
2023/09/04 07:39:25;;;;;;;5.07;3.88;;;;;;;20.31;48.74;100685.47;10254851;28;20245;-34
2023/09/04 07:44:27;;;;;;;6.03;3.50;;;;;;;21.46;47.77;100604.72;10256229;28;20326;-35
2023/09/04 07:49:29;;;;;;;6.72;3.20;;;;;;;21.09;47.53;100651.16;10265284;28;20620;-35
2023/09/04 07:54:30;;;;;;;3.55;3.25;;;;;;;20.46;48.66;100734.00;10259269;28;20234;-35
2023/09/04 07:59:35;;;;;;;5.15;3.10;;;;;;;20.42;48.58;100690.16;10261022;28;20257;-35
2023/09/04 08:04:36;;;;;;;3.92;3.13;;;;;;;20.25;48.46;100719.00;10258654;28;20309;-35
2023/09/04 08:09:38;;;;;;;4.78;3.50;;;;;;;21.37;47.15;100658.69;10264441;28;20234;-35
2023/09/04 08:14:40;;;;;;;4.20;3.30;;;;;;;22.02;46.11;100596.94;10255743;28;20235;-35
2023/09/04 08:19:42;;;;;;;3.70;3.25;;;;;;;20.55;48.79;100696.47;10259990;28;20249;-35
2023/09/04 08:24:45;;;;;;;4.13;3.72;;;;;;;21.89;47.03;100632.59;10264188;28;20305;-35
2023/09/04 08:29:50;;;;;;;5.30;3.30;;;;;;;21.76;47.20;100639.09;10265275;28;20312;-35
2023/09/04 08:34:52;;;;;;;3.38;3.08;;;;;;;21.62;47.44;100616.75;10267541;28;20238;-35
2023/09/04 08:39:54;;;;;;;6.80;3.20;;;;;;;21.87;46.47;100662.78;10273730;28;20297;-35
2023/09/04 08:44:59;;;;;;;3.65;3.30;;;;;;;21.22;47.24;100716.25;10267716;28;20241;-35
2023/09/04 08:50:02;;;;;;;9.32;3.75;;;;;;;22.02;46.41;100648.69;10268368;28;20292;-35
2023/09/04 08:55:08;;;;;;;4.45;3.20;;;;;;;23.55;44.47;100567.03;10267210;28;20243;-35
2023/09/04 09:00:10;;;;;;;3.25;2.95;;;;;;;22.29;45.75;100651.69;10269560;28;20234;-35
2023/09/04 09:05:15;;;;;;;4.55;2.90;;;;;;;23.01;45.28;100584.81;10263899;28;20226;-35
2023/09/04 09:10:20;;;;;;;3.67;3.00;;;;;;;23.09;44.90;100619.06;10268361;28;20222;-35
2023/09/04 09:15:21;;;;;;;2.88;2.67;;;;;;;23.87;43.58;100597.28;10265554;28;20235;-35
2023/09/04 09:20:31;;;;;;;4.05;2.75;;;;;;;23.10;44.42;100656.22;10266717;28;20302;-35
2023/09/04 09:25:34;;;;;;;3.65;3.22;;;;;;;23.56;43.83;100613.22;10269955;28;21173;-34
2023/09/04 09:30:40;;;;;;;4.40;3.10;;;;;;;23.94;43.22;100586.97;10266428;28;20618;-35
2023/09/04 09:35:42;;;;;;;3.28;2.97;;;;;;;23.73;43.53;100621.41;10263727;28;20238;-35
2023/09/04 09:40:44;;;;;;;3.45;3.00;;;;;;;24.70;42.90;100545.13;10268113;28;20245;-35
2023/09/04 09:45:49;;;;;;;3.40;2.80;;;;;;;24.44;42.02;100576.03;10262719;28;20231;-34
2023/09/04 09:50:53;;;;;;;3.92;3.10;;;;;;;23.45;41.96;100641.50;10262277;28;20340;-35
2023/09/04 09:55:55;;;;;;;3.55;2.67;;;;;;;23.77;42.05;100569.81;10267786;28;20865;-34
2023/09/04 10:00:58;;;;;;;6.65;2.90;;;;;;;24.09;42.31;100542.59;10266157;28;20611;-35
2023/09/04 10:06:06;;;;;;;5.43;3.05;;;;;;;23.62;42.19;100614.97;10262759;28;20317;-35
2023/09/04 10:11:12;;;;;;;5.47;2.88;;;;;;;24.90;41.43;100517.09;10266774;28;20227;-35
2023/09/04 10:16:17;;;;;;;4.07;2.55;;;;;;;24.10;41.76;100554.34;10257848;28;20226;-35
2023/09/04 10:21:22;;;;;;;4.60;3.05;;;;;;;24.44;41.22;100554.16;10263943;28;20286;-35
2023/09/04 10:26:35;;;;;;;2.88;2.58;;;;;;;25.05;41.07;100505.41;10260606;28;20234;-35
2023/09/04 10:31:38;;;;;;;2.92;2.70;;;;;;;25.38;40.24;100503.41;10265974;28;20233;-35
2023/09/04 10:36:40;;;;;;;4.75;3.20;;;;;;;25.47;40.60;100460.72;10267013;28;20332;-38
2023/09/04 10:41:43;;;;;;;4.80;2.75;;;;;;;25.38;40.95;100464.25;10265315;28;20246;-36
2023/09/04 10:46:55;;;;;;;5.13;3.17;;;;;;;24.66;40.64;100493.88;10262929;28;20238;-36
2023/09/04 10:51:57;;;;;;;3.03;2.63;;;;;;;25.78;40.16;100465.50;10261926;28;20382;-35
2023/09/04 10:57:01;;;;;;;4.32;2.97;;;;;;;26.33;39.31;100452.13;10266490;28;20230;-35
2023/09/04 11:06:20;;;;;;;4.00;2.60;;;;;;;23.65;41.61;100418.88;10428539;27;20860;-77
2023/09/04 11:11:25;;;;;;;3.05;2.75;;;;;;;24.17;41.13;100408.19;10375713;28;20229;-77
2023/09/04 11:16:40;;;;;;;3.30;2.70;;;;;;;24.24;41.04;100413.44;10375965;28;20213;-77
2023/09/04 11:21:45;;;;;;;3.67;2.53;;;;;;;24.67;40.37;100416.19;10372503;28;20757;-78
2023/09/04 11:26:46;;;;;;;4.15;2.80;;;;;;;24.28;40.38;100457.50;10370474;28;20359;-77
2023/09/04 11:31:48;;;;;;;3.25;2.78;;;;;;;24.79;39.87;100418.75;10372019;28;20783;-77
2023/09/04 11:37:12;;;;;;;3.10;2.80;;;;;;;24.80;39.43;100442.28;10379426;28;20228;-76
2023/09/04 11:42:19;;;;;;;3.22;2.53;;;;;;;25.51;38.71;100419.91;10367804;28;20237;-77
2023/09/04 11:47:22;;;;;;;2.88;2.53;;;;;;;25.06;38.26;100444.06;10337423;28;20222;-77
2023/09/04 11:52:28;;;;;;;3.17;2.58;;;;;;;25.31;38.35;100415.19;10327013;28;20277;-78
2023/09/04 11:57:31;;;;;;;3.42;2.97;;;;;;;25.32;37.74;100403.16;10332162;28;20229;-77
2023/09/04 12:02:33;;;;;;;3.75;2.65;;;;;;;25.68;37.23;100399.66;10333291;28;20527;-76
2023/09/04 12:07:36;;;;;;;3.10;2.38;;;;;;;25.63;36.69;100441.56;10334591;28;20736;-77
2023/09/04 12:12:37;;;;;;;3.88;2.40;;;;;;;25.19;37.69;100415.38;10331488;28;20240;-77
2023/09/04 12:17:39;;;;;;;2.50;2.20;;;;;;;25.65;36.98;100399.09;10300459;28;20239;-77
2023/09/04 12:22:42;;;;;;;5.10;2.58;;;;;;;26.35;36.67;100371.22;10304083;28;20335;-77
2023/09/04 12:27:44;;;;;;;3.05;2.50;;;;;;;25.07;36.19;100432.03;10298432;28;20283;-79
2023/09/04 12:32:46;;;;;;;3.60;2.53;;;;;;;25.62;36.36;100402.38;10308961;28;20234;-77
2023/09/04 12:37:51;;;;;;;4.72;2.80;;;;;;;24.74;35.71;100425.84;10321449;28;20234;-77
2023/09/04 12:42:53;;;;;;;3.65;2.85;;;;;;;25.22;35.68;100392.13;10303032;28;20223;-78
2023/09/04 12:47:58;;;;;;;3.35;2.40;;;;;;;25.52;35.75;100368.66;10319179;28;20267;-77
2023/09/04 12:53:00;;;;;;;2.78;2.50;;;;;;;26.37;35.20;100340.75;10341916;28;20244;-77
2023/09/04 12:58:13;;;;;;;2.65;2.45;;;;;;;26.12;35.33;100312.25;10342642;28;20233;-77
2023/09/04 13:03:15;;;;;;;2.42;2.22;;;;;;;25.75;34.94;100334.47;10342280;28;20229;-77
2023/09/04 13:08:16;;;;;;;3.85;2.58;;;;;;;26.33;34.91;100345.97;10326307;28;20775;-77
2023/09/04 13:13:18;;;;;;;3.53;2.45;;;;;;;26.55;34.59;100298.16;10300827;28;20665;-77
2023/09/04 13:18:20;;;;;;;4.03;2.40;;;;;;;26.76;34.18;100287.97;10303940;28;20230;-78
2023/09/04 13:23:21;;;;;;;3.85;2.70;;;;;;;26.53;34.39;100295.69;10318128;28;20709;-79
2023/09/04 13:28:24;;;;;;;2.83;2.53;;;;;;;27.42;34.08;100300.50;10343689;28;20473;-80
2023/09/04 13:33:27;;;;;;;2.60;2.38;;;;;;;26.60;33.87;100270.69;10343919;28;20334;-79
2023/09/04 13:38:30;;;;;;;3.50;2.40;;;;;;;27.45;33.03;100261.44;10326067;28;20237;-79
2023/09/04 13:43:31;;;;;;;4.53;2.30;;;;;;;27.22;33.08;100293.22;10304979;28;20264;-76
2023/09/04 13:48:33;;;;;;;4.85;2.50;;;;;;;27.93;32.68;100265.44;10306542;28;20289;-79
2023/09/04 13:53:35;;;;;;;4.45;3.10;;;;;;;27.18;33.58;100299.53;10296156;28;20321;-78
2023/09/04 13:58:36;;;;;;;2.47;2.15;;;;;;;27.77;33.27;100240.06;10299759;28;20270;-79
2023/09/04 14:03:38;;;;;;;7.85;2.70;;;;;;;27.67;32.28;100285.72;10317180;28;20686;-78
2023/09/04 14:08:40;;;;;;;4.28;2.75;;;;;;;27.64;33.19;100264.31;10338809;28;20346;-79
2023/09/04 14:13:41;;;;;;;3.25;2.50;;;;;;;27.56;33.67;100280.59;10322678;28;20225;-78
2023/09/04 14:18:43;;;;;;;3.63;2.38;;;;;;;27.47;33.13;100250.16;10301663;28;20229;-78
2023/09/04 14:23:48;;;;;;;3.05;2.47;;;;;;;27.37;33.19;100244.75;10296879;28;20813;-78
2023/09/04 14:28:49;;;;;;;3.90;2.45;;;;;;;26.75;33.76;100239.66;10301582;28;20480;-77
2023/09/04 14:33:52;;;;;;;3.38;2.30;;;;;;;26.91;33.39;100230.22;10294763;28;20260;-76
2023/09/04 14:38:55;;;;;;;3.20;2.40;;;;;;;28.05;32.48;100217.19;10295197;28;20238;-76
2023/09/04 14:43:57;;;;;;;2.75;2.25;;;;;;;26.65;33.12;100232.25;10298982;28;20341;-75
2023/09/04 14:48:59;;;;;;;5.13;2.42;;;;;;;27.80;31.85;100196.28;10300962;28;20241;-76
2023/09/04 14:54:02;;;;;;;4.75;2.13;;;;;;;26.51;32.87;100245.75;10295600;28;20636;-76
2023/09/04 14:59:04;;;;;;;4.60;2.95;;;;;;;28.25;32.42;100204.31;10292958;28;20241;-80
2023/09/04 15:05:18;;;;;;;3.90;2.22;;;;;;;26.53;34.10;100169.47;10470117;27;20890;-78
2023/09/04 15:10:19;;;;;;;3.08;2.60;;;;;;;27.29;33.38;100181.09;10453951;28;20614;-80
2023/09/04 15:15:22;;;;;;;5.15;2.33;;;;;;;27.16;33.60;100167.16;10450343;28;20238;-78
2023/09/04 15:20:24;;;;;;;4.63;2.30;;;;;;;26.93;33.25;100194.25;10449364;28;20310;-78
2023/09/04 15:25:26;;;;;;;3.33;2.30;;;;;;;26.91;33.13;100156.09;10443818;28;20235;-77
2023/09/04 15:30:28;;;;;;;5.40;2.50;;;;;;;26.78;33.05;100200.66;10446751;28;20735;-78
2023/09/04 15:35:29;;;;;;;6.00;2.55;;;;;;;26.97;33.47;100169.78;10447614;28;20259;-77
2023/09/04 15:40:34;;;;;;;3.30;2.38;;;;;;;26.57;33.95;100167.81;10452839;28;20741;-76
2023/09/04 15:45:42;;;;;;;2.80;2.50;;;;;;;27.34;33.25;100143.69;10454254;28;20254;-76
2023/09/04 15:50:44;;;;;;;3.10;2.03;;;;;;;26.91;33.00;100153.34;10448040;28;20796;-75
2023/09/04 15:55:47;;;;;;;4.65;2.58;;;;;;;26.60;33.14;100144.47;10446802;28;20657;-75
2023/09/04 16:00:49;;;;;;;5.03;2.15;;;;;;;26.73;32.80;100174.06;10437489;28;20246;-76
2023/09/04 16:05:50;;;;;;;2.97;2.17;;;;;;;27.08;32.09;100163.91;10446653;28;20305;-76
2023/09/04 16:10:52;;;;;;;7.10;2.20;;;;;;;26.92;31.55;100185.19;10441323;28;20767;-74
2023/09/04 16:15:54;;;;;;;3.00;2.20;;;;;;;27.11;31.21;100168.03;10422347;28;20297;-74
2023/09/04 16:21:01;;;;;;;3.25;2.58;;;;;;;27.02;31.82;100186.22;10416580;28;20224;-78
2023/09/04 16:26:07;;;;;;;2.58;2.30;;;;;;;27.05;31.55;100158.19;10421736;28;20297;-79
2023/09/04 16:31:08;;;;;;;4.45;2.15;;;;;;;26.95;30.63;100173.63;10418268;28;20231;-77
2023/09/04 16:36:10;;;;;;;3.40;2.03;;;;;;;26.53;30.82;100188.69;10423091;28;20239;-74
2023/09/04 16:41:13;;;;;;;2.60;2.03;;;;;;;27.31;30.40;100147.81;10413974;28;20238;-74
2023/09/04 16:46:14;;;;;;;2.85;2.38;;;;;;;27.22;31.13;100146.81;10423400;28;20800;-75
2023/09/04 16:51:16;;;;;;;3.33;2.33;;;;;;;27.48;31.52;100161.13;10413211;28;20298;-74
2023/09/04 16:56:19;;;;;;;4.38;2.30;;;;;;;26.52;32.97;100187.06;10416599;28;20231;-75
2023/09/04 17:01:20;;;;;;;3.17;2.25;;;;;;;25.74;33.56;100193.88;10397593;28;20334;-75
2023/09/04 17:06:22;;;;;;;3.05;2.28;;;;;;;26.39;33.06;100157.50;10416356;28;20219;-74
2023/09/04 17:11:24;;;;;;;3.80;2.40;;;;;;;26.15;33.35;100135.38;10411945;28;20303;-74
2023/09/04 17:16:25;;;;;;;5.10;2.30;;;;;;;27.86;32.12;100093.38;10418258;28;20215;-75
2023/09/04 17:21:27;;;;;;;2.58;2.38;;;;;;;26.34;33.12;100152.03;10410653;28;20826;-75
2023/09/04 17:26:29;;;;;;;3.97;2.35;;;;;;;27.42;32.09;100104.59;10412658;28;20213;-75
2023/09/04 17:31:30;;;;;;;5.68;2.55;;;;;;;24.97;33.48;100177.44;10368442;28;20228;-75
2023/09/04 17:36:32;;;;;;;3.10;2.42;;;;;;;25.27;33.67;100156.63;10371593;28;20265;-75
2023/09/04 17:41:34;;;;;;;3.42;2.08;;;;;;;26.30;32.87;100104.31;10372181;28;20835;-75
2023/09/04 17:46:36;;;;;;;2.75;2.33;;;;;;;25.18;33.57;100188.38;10409430;28;20223;-74
2023/09/04 17:51:37;;;;;;;4.80;2.33;;;;;;;26.00;33.16;100126.09;10369729;28;20323;-74
2023/09/04 17:56:39;;;;;;;5.53;2.40;;;;;;;24.93;33.80;100190.00;10410052;28;20212;-75
2023/09/04 18:01:41;;;;;;;5.38;2.45;;;;;;;25.48;33.79;100155.53;10399647;28;20258;-75
2023/09/04 18:06:42;;;;;;;6.13;2.50;;;;;;;24.82;34.29;100174.69;10414850;28;20285;-75
2023/09/04 18:11:45;;;;;;;3.45;1.90;;;;;;;25.79;34.11;100117.16;10408315;28;20248;-75
2023/09/04 18:16:47;;;;;;;6.00;2.63;;;;;;;24.46;34.95;100152.66;10417106;28;20730;-75
2023/09/04 18:21:49;;;;;;;3.53;2.20;;;;;;;24.89;34.91;100120.50;10407096;28;20241;-75
2023/09/04 18:26:50;;;;;;;3.90;2.15;;;;;;;24.21;35.34;100147.94;10417512;28;20235;-74
2023/09/04 18:31:52;;;;;;;5.72;2.47;;;;;;;24.13;35.61;100157.44;10410653;28;20771;-75
2023/09/04 18:36:54;;;;;;;2.90;2.55;;;;;;;24.78;34.82;100135.25;10416091;28;20238;-74
2023/09/04 18:41:56;;;;;;;5.20;2.45;;;;;;;23.44;35.80;100161.94;10409866;28;20806;-75
2023/09/04 18:46:57;;;;;;;3.10;2.42;;;;;;;23.93;35.22;100180.84;10414590;28;20228;-75
2023/09/04 18:51:59;;;;;;;2.70;2.20;;;;;;;24.48;35.17;100166.91;10411077;28;20313;-75
2023/09/04 18:57:01;;;;;;;2.95;2.30;;;;;;;23.71;35.36;100202.84;10414095;28;20231;-75
2023/09/04 19:02:03;;;;;;;3.67;2.38;;;;;;;25.29;34.54;100111.47;10405214;28;20236;-75
2023/09/04 19:07:05;;;;;;;3.17;2.30;;;;;;;24.28;35.39;100159.47;10408055;28;20262;-75
2023/09/04 19:12:07;;;;;;;2.53;2.17;;;;;;;24.24;35.55;100137.31;10409301;28;20259;-75
2023/09/04 19:17:09;;;;;;;4.30;2.30;;;;;;;24.48;35.55;100121.22;10411508;28;20379;-76
2023/09/04 19:22:11;;;;;;;2.97;2.40;;;;;;;23.55;36.14;100149.16;10410554;28;20810;-77
2023/09/04 19:27:13;;;;;;;3.25;2.60;;;;;;;24.03;35.50;100158.22;10415096;28;20228;-74
2023/09/04 19:32:14;;;;;;;5.57;2.38;;;;;;;24.02;35.61;100137.44;10411879;28;20658;-73
2023/09/04 19:37:16;;;;;;;3.15;2.20;;;;;;;23.73;36.24;100115.97;10404038;28;20258;-74
2023/09/04 19:42:17;;;;;;;2.92;2.28;;;;;;;22.70;37.76;100144.34;10406786;28;20235;-75
2023/09/04 19:47:19;;;;;;;2.78;2.33;;;;;;;22.48;38.03;100142.44;10407580;28;20229;-73
2023/09/04 19:52:21;;;;;;;6.28;2.65;;;;;;;24.02;36.67;100112.84;10416904;28;20297;-74
2023/09/04 19:57:22;;;;;;;3.38;2.50;;;;;;;22.73;37.97;100154.75;10416026;28;20812;-72
2023/09/04 20:02:24;;;;;;;2.78;2.42;;;;;;;22.27;38.40;100163.19;10412495;28;20243;-71
2023/09/04 20:07:27;;;;;;;3.00;2.70;;;;;;;22.79;37.89;100152.88;10421359;28;20633;-71
2023/09/04 20:12:28;;;;;;;3.30;2.55;;;;;;;22.22;39.18;100145.94;10414539;28;20733;-71
2023/09/04 20:17:30;;;;;;;3.22;2.63;;;;;;;21.92;39.90;100106.31;10419599;28;20238;-70
2023/09/04 20:22:33;;;;;;;4.32;2.60;;;;;;;22.60;39.10;100086.97;10400753;28;20253;-70
2023/09/04 20:27:35;;;;;;;3.25;2.50;;;;;;;22.97;39.00;100097.94;10378252;28;20228;-74
2023/09/04 20:32:37;;;;;;;4.68;2.75;;;;;;;22.43;39.50;100103.41;10403041;28;20258;-73
2023/09/04 20:37:38;;;;;;;4.55;2.92;;;;;;;22.37;39.82;100098.97;10385285;28;20251;-73
2023/09/04 20:42:40;;;;;;;4.22;2.47;;;;;;;22.93;39.48;100082.38;10465861;28;20789;-73
2023/09/04 20:47:42;;;;;;;3.03;2.75;;;;;;;22.02;40.30;100146.53;10459533;28;20241;-72
2023/09/04 20:52:43;;;;;;;5.05;2.85;;;;;;;23.18;39.18;100093.50;10460709;28;20246;-73
2023/09/04 20:57:45;;;;;;;5.38;2.75;;;;;;;22.33;41.00;100109.56;10465527;28;20247;-72
2023/09/04 21:02:47;;;;;;;3.30;2.78;;;;;;;22.43;40.10;100141.56;10466227;28;20231;-73
2023/09/04 23:26:11;;;;;;;7.00;4.03;;;;;;;21.05;44.76;100105.84;10427896;28;20231;-34
2023/09/04 23:31:13;;;;;;;4.32;3.50;;;;;;;20.91;45.00;100099.06;10434842;28;20318;-34
2023/09/04 23:36:24;;;;;;;5.13;3.80;;;;;;;21.44;44.60;100075.97;10436414;28;20769;-35
2023/09/04 23:46:47;;;;;;;7.57;3.42;;;;;;;20.01;45.56;100242.63;10430828;28;20282;-35
2023/09/04 23:51:49;;;;;;;5.78;3.70;;;;;;;20.63;45.25;100185.84;10431500;28;20236;-35
2023/09/04 23:56:51;;;;;;;4.13;3.50;;;;;;;21.33;44.42;100099.47;10427920;28;20304;-34
